Time;durP1;ratioP1;P1;durP2;ratioP2;P2;SDS_P1;SDS_P2;PMS_P1;PMS_P2;Temp;Humidity;BMP_temperature;BMP_pressure;BME280_temperature;BME280_humidity;BME280_pressure;Samples;Min_cycle;Max_cycle;Signal;HPM_P1;HPM_P2
2023/12/17 00:01:46;;;;;;;3.63;1.88;;;;;;;;;;4993291;28;20145;-64
2023/12/17 00:04:13;;;;;;;2.35;1.73;;;;;;;;;;5018392;28;20398;-66
2023/12/17 00:06:41;;;;;;;4.70;1.83;;;;;;;;;;5005816;28;20462;-64
2023/12/17 00:09:08;;;;;;;2.25;2.05;;;;;;;;;;5006028;28;20424;-64
2023/12/17 00:11:41;;;;;;;3.22;1.55;;;;;;;;;;4989369;28;20556;-65
2023/12/17 00:14:07;;;;;;;1.55;1.45;;;;;;;;;;5001273;28;20026;-65
2023/12/17 00:16:33;;;;;;;1.90;1.40;;;;;;;;;;4991872;28;20447;-67
2023/12/17 00:18:59;;;;;;;1.60;1.50;;;;;;;;;;4994993;28;20478;-65
2023/12/17 00:21:25;;;;;;;3.00;1.67;;;;;;;;;;5003735;28;20034;-64
2023/12/17 00:23:52;;;;;;;1.70;1.55;;;;;;;;;;4999592;28;20635;-64
2023/12/17 00:26:18;;;;;;;1.70;1.60;;;;;;;;;;5030480;28;20747;-65
2023/12/17 00:28:44;;;;;;;1.85;1.65;;;;;;;;;;5043712;28;20052;-65
2023/12/17 00:31:10;;;;;;;1.60;1.50;;;;;;;;;;5037713;28;20066;-64
2023/12/17 00:33:36;;;;;;;3.83;1.52;;;;;;;;;;5014374;28;20292;-64
2023/12/17 00:36:03;;;;;;;1.33;1.33;;;;;;;;;;5014682;28;20428;-64
2023/12/17 00:38:29;;;;;;;2.50;1.63;;;;;;;;;;5009994;28;20399;-67
2023/12/17 00:40:55;;;;;;;2.08;1.80;;;;;;;;;;5038266;28;20033;-64
2023/12/17 00:43:21;;;;;;;2.63;1.73;;;;;;;;;;5024696;28;20546;-65
2023/12/17 00:45:47;;;;;;;4.65;2.17;;;;;;;;;;4997498;28;20050;-64
2023/12/17 00:48:14;;;;;;;1.70;1.60;;;;;;;;;;5000667;28;20428;-65
2023/12/17 00:50:40;;;;;;;1.92;1.75;;;;;;;;;;4987340;28;20037;-65
2023/12/17 00:53:06;;;;;;;3.60;2.08;;;;;;;;;;5005705;28;20090;-64
2023/12/17 00:55:32;;;;;;;4.07;1.83;;;;;;;;;;5028810;28;20031;-63
2023/12/17 00:57:58;;;;;;;5.47;1.60;;;;;;;;;;5021805;28;20038;-64
2023/12/17 01:00:24;;;;;;;1.73;1.63;;;;;;;;;;5008559;28;20042;-64
2023/12/17 01:02:53;;;;;;;4.78;2.08;;;;;;;;;;5011794;28;20030;-65
2023/12/17 01:05:19;;;;;;;2.08;1.40;;;;;;;;;;5004745;28;20041;-66
2023/12/17 01:07:46;;;;;;;1.30;1.25;;;;;;;;;;5025002;28;20574;-64
2023/12/17 01:10:12;;;;;;;1.30;1.30;;;;;;;;;;4998997;28;20064;-64
2023/12/17 01:12:38;;;;;;;1.58;1.30;;;;;;;;;;4993615;28;20068;-64
2023/12/17 01:15:05;;;;;;;2.78;1.75;;;;;;;;;;5005120;28;20468;-65
2023/12/17 01:17:31;;;;;;;1.63;1.52;;;;;;;;;;5002511;28;20030;-65
2023/12/17 01:19:59;;;;;;;1.20;1.20;;;;;;;;;;4997609;28;20045;-65
2023/12/17 01:22:26;;;;;;;1.05;1.05;;;;;;;;;;5025256;28;20041;-65
2023/12/17 01:24:54;;;;;;;2.33;1.42;;;;;;;;;;5016371;28;20035;-65
2023/12/17 01:27:21;;;;;;;1.13;1.13;;;;;;;;;;5012017;28;20064;-64
2023/12/17 01:29:47;;;;;;;1.48;1.17;;;;;;;;;;5007568;28;20033;-64
2023/12/17 01:32:14;;;;;;;1.13;1.10;;;;;;;;;;4999656;28;20091;-64
2023/12/17 01:34:40;;;;;;;1.20;1.20;;;;;;;;;;5033653;28;20026;-65
2023/12/17 01:37:06;;;;;;;1.80;1.50;;;;;;;;;;5041970;28;20040;-65
2023/12/17 01:39:32;;;;;;;2.13;1.58;;;;;;;;;;5008196;28;20034;-64
2023/12/17 01:41:59;;;;;;;1.40;1.30;;;;;;;;;;5045246;28;20390;-65
2023/12/17 01:44:25;;;;;;;2.17;1.20;;;;;;;;;;5030858;28;20029;-64
2023/12/17 01:46:51;;;;;;;1.58;1.40;;;;;;;;;;5009881;28;20133;-64
2023/12/17 01:49:18;;;;;;;1.17;1.17;;;;;;;;;;4999152;28;20451;-64
2023/12/17 01:51:45;;;;;;;1.10;1.10;;;;;;;;;;5010563;28;20018;-64
2023/12/17 01:54:11;;;;;;;1.30;1.20;;;;;;;;;;5049173;28;20038;-65
2023/12/17 01:56:38;;;;;;;1.10;1.10;;;;;;;;;;5030130;28;20067;-64
2023/12/17 01:59:05;;;;;;;1.88;1.58;;;;;;;;;;5007918;28;20045;-64
2023/12/17 02:01:31;;;;;;;1.10;1.10;;;;;;;;;;5026626;28;20154;-64
2023/12/17 02:03:58;;;;;;;1.35;1.30;;;;;;;;;;4993809;28;20030;-67
2023/12/17 02:06:24;;;;;;;1.20;1.20;;;;;;;;;;5009345;28;20034;-68
2023/12/17 02:08:50;;;;;;;1.40;1.30;;;;;;;;;;5008131;28;20030;-64
2023/12/17 02:11:17;;;;;;;1.52;1.42;;;;;;;;;;5048881;28;20080;-66
2023/12/17 02:13:43;;;;;;;2.92;1.42;;;;;;;;;;4993478;28;20083;-64
2023/12/17 02:16:09;;;;;;;2.40;1.27;;;;;;;;;;4995085;28;20096;-64
2023/12/17 02:18:36;;;;;;;3.95;1.38;;;;;;;;;;5007510;28;20427;-64
2023/12/17 02:21:02;;;;;;;1.58;1.33;;;;;;;;;;5001021;28;20128;-64
2023/12/17 02:23:29;;;;;;;1.20;1.20;;;;;;;;;;4992400;28;20030;-63
2023/12/17 02:25:55;;;;;;;1.20;1.20;;;;;;;;;;5017536;28;20032;-65
2023/12/17 02:28:21;;;;;;;1.55;1.25;;;;;;;;;;5006140;28;20460;-65
2023/12/17 02:30:47;;;;;;;1.67;1.67;;;;;;;;;;4999673;28;20062;-64
2023/12/17 02:33:13;;;;;;;1.83;1.73;;;;;;;;;;4991259;28;20064;-64
2023/12/17 02:35:40;;;;;;;1.17;1.17;;;;;;;;;;5007016;28;20054;-64
2023/12/17 02:38:06;;;;;;;1.13;1.13;;;;;;;;;;5006901;28;20030;-64
2023/12/17 02:40:32;;;;;;;1.20;1.20;;;;;;;;;;4998409;28;20038;-64
2023/12/17 02:42:58;;;;;;;1.02;1.02;;;;;;;;;;5013053;28;20032;-64
2023/12/17 02:45:24;;;;;;;2.25;1.40;;;;;;;;;;5013246;28;20116;-63
2023/12/17 02:47:51;;;;;;;1.30;1.30;;;;;;;;;;4998946;28;20042;-65
2023/12/17 02:50:17;;;;;;;1.20;1.20;;;;;;;;;;5004371;28;20064;-65
2023/12/17 02:52:43;;;;;;;2.17;1.48;;;;;;;;;;5000571;28;20134;-64
2023/12/17 02:55:11;;;;;;;2.00;1.10;;;;;;;;;;4996904;28;20038;-64
2023/12/17 02:57:37;;;;;;;1.33;1.15;;;;;;;;;;5003885;28;20566;-64
2023/12/17 03:00:04;;;;;;;1.10;1.10;;;;;;;;;;5010334;28;20026;-63
2023/12/17 03:02:30;;;;;;;1.00;1.00;;;;;;;;;;4994358;28;20119;-64
2023/12/17 03:04:59;;;;;;;1.10;1.10;;;;;;;;;;5000791;28;20038;-65
2023/12/17 03:07:25;;;;;;;1.50;1.17;;;;;;;;;;4992734;28;20129;-64
2023/12/17 03:09:54;;;;;;;1.15;1.15;;;;;;;;;;5010501;28;20415;-65
2023/12/17 03:12:20;;;;;;;1.00;1.00;;;;;;;;;;4995661;28;20018;-64
2023/12/17 03:14:47;;;;;;;1.20;1.17;;;;;;;;;;4997362;28;20552;-65
2023/12/17 03:17:13;;;;;;;2.00;1.30;;;;;;;;;;5005096;28;20061;-64
2023/12/17 03:19:40;;;;;;;1.10;1.10;;;;;;;;;;5000159;28;20437;-64
2023/12/17 03:22:06;;;;;;;1.23;1.10;;;;;;;;;;4995168;28;20073;-65
2023/12/17 03:24:32;;;;;;;0.90;0.90;;;;;;;;;;4994658;28;20489;-64
2023/12/17 03:26:59;;;;;;;1.42;1.33;;;;;;;;;;5009801;28;20030;-64
2023/12/17 03:29:25;;;;;;;0.90;0.90;;;;;;;;;;5016295;28;20346;-65
2023/12/17 03:31:51;;;;;;;1.08;1.08;;;;;;;;;;4998903;28;20490;-64
2023/12/17 03:34:17;;;;;;;1.00;1.00;;;;;;;;;;5000061;28;20500;-65
2023/12/17 03:36:44;;;;;;;1.10;1.10;;;;;;;;;;4999624;28;20036;-63
2023/12/17 03:39:10;;;;;;;1.23;1.23;;;;;;;;;;5007469;28;20034;-63
2023/12/17 03:41:36;;;;;;;3.70;1.27;;;;;;;;;;4996728;28;20022;-64
2023/12/17 03:44:02;;;;;;;1.08;1.08;;;;;;;;;;5000669;28;20045;-64
2023/12/17 03:46:28;;;;;;;1.20;1.08;;;;;;;;;;4994951;28;20171;-64
2023/12/17 03:48:55;;;;;;;1.60;1.00;;;;;;;;;;4995651;28;20048;-64
2023/12/17 03:51:21;;;;;;;1.33;1.20;;;;;;;;;;5000834;28;20065;-64
2023/12/17 03:53:47;;;;;;;1.00;1.00;;;;;;;;;;5000169;28;20509;-64
2023/12/17 03:56:14;;;;;;;2.15;1.33;;;;;;;;;;5003757;28;20026;-64
2023/12/17 03:58:40;;;;;;;1.42;1.20;;;;;;;;;;5026163;28;20109;-64
2023/12/17 04:01:07;;;;;;;1.10;1.10;;;;;;;;;;4995590;28;20049;-64
2023/12/17 04:03:33;;;;;;;1.75;1.17;;;;;;;;;;5000252;28;20474;-64
2023/12/17 04:06:00;;;;;;;1.48;1.30;;;;;;;;;;5002042;28;20456;-65
2023/12/17 04:08:26;;;;;;;2.67;1.67;;;;;;;;;;4988030;28;20449;-64
2023/12/17 04:10:53;;;;;;;1.00;1.00;;;;;;;;;;4990607;28;20026;-63
2023/12/17 04:13:19;;;;;;;1.27;1.08;;;;;;;;;;4994981;28;20046;-66
2023/12/17 04:15:45;;;;;;;1.20;1.20;;;;;;;;;;5004627;28;20057;-65
2023/12/17 04:18:12;;;;;;;1.00;1.00;;;;;;;;;;5002436;28;20119;-65
2023/12/17 04:20:38;;;;;;;1.50;1.40;;;;;;;;;;4995258;28;20042;-64
2023/12/17 04:23:04;;;;;;;1.67;1.55;;;;;;;;;;5009513;28;20272;-64
2023/12/17 04:25:30;;;;;;;1.40;1.30;;;;;;;;;;5005355;28;20035;-64
2023/12/17 04:27:57;;;;;;;1.40;1.30;;;;;;;;;;5006317;28;20030;-64
2023/12/17 04:30:23;;;;;;;4.78;1.42;;;;;;;;;;5002621;28;20616;-64
2023/12/17 04:32:49;;;;;;;6.50;2.20;;;;;;;;;;5002719;28;20065;-65
2023/12/17 04:35:16;;;;;;;5.07;1.50;;;;;;;;;;4999310;28;20029;-65
2023/12/17 04:37:42;;;;;;;1.58;1.48;;;;;;;;;;5025890;28;20493;-65
2023/12/17 04:40:09;;;;;;;1.95;1.27;;;;;;;;;;5014864;28;20644;-65
2023/12/17 04:42:35;;;;;;;3.92;1.88;;;;;;;;;;5018610;28;20370;-64
2023/12/17 04:45:05;;;;;;;2.97;1.42;;;;;;;;;;5004526;28;20391;-65
2023/12/17 04:47:31;;;;;;;4.20;2.42;;;;;;;;;;5023875;28;20049;-65
2023/12/17 04:49:57;;;;;;;1.63;1.50;;;;;;;;;;5038182;28;20359;-65
2023/12/17 04:52:24;;;;;;;2.13;1.77;;;;;;;;;;4995587;28;20022;-65
2023/12/17 04:54:50;;;;;;;3.30;1.67;;;;;;;;;;5008950;28;20025;-65
2023/12/17 04:57:16;;;;;;;3.40;1.65;;;;;;;;;;5019173;28;20038;-65
2023/12/17 04:59:42;;;;;;;3.63;1.88;;;;;;;;;;5013161;28;20134;-64
2023/12/17 05:02:08;;;;;;;4.47;1.65;;;;;;;;;;5006507;28;20037;-66
2023/12/17 05:04:35;;;;;;;5.47;1.83;;;;;;;;;;4993239;28;20031;-65
2023/12/17 05:07:01;;;;;;;5.38;1.70;;;;;;;;;;5005043;28;20478;-64
2023/12/17 05:09:27;;;;;;;5.22;1.70;;;;;;;;;;5014462;28;20029;-65
2023/12/17 05:11:53;;;;;;;4.88;1.90;;;;;;;;;;5042092;28;20047;-65
2023/12/17 05:14:20;;;;;;;6.32;1.45;;;;;;;;;;5008079;28;20033;-65
2023/12/17 05:16:47;;;;;;;4.40;1.85;;;;;;;;;;5005997;28;20025;-65
2023/12/17 05:19:13;;;;;;;2.00;1.75;;;;;;;;;;5026338;28;20044;-65
2023/12/17 05:21:42;;;;;;;3.95;1.90;;;;;;;;;;5029740;28;20038;-65
2023/12/17 05:24:08;;;;;;;8.05;2.08;;;;;;;;;;4993906;28;20054;-64
2023/12/17 05:26:34;;;;;;;3.78;1.85;;;;;;;;;;5009080;28;20376;-64
2023/12/17 05:29:00;;;;;;;4.47;2.22;;;;;;;;;;5005145;28;20512;-65
2023/12/17 05:31:26;;;;;;;3.60;1.80;;;;;;;;;;5004545;28;20030;-65
2023/12/17 05:33:53;;;;;;;2.78;1.60;;;;;;;;;;4998193;28;20082;-65
2023/12/17 05:36:19;;;;;;;6.63;2.03;;;;;;;;;;4994820;28;20079;-64
2023/12/17 05:38:46;;;;;;;1.85;1.42;;;;;;;;;;5003785;28;20033;-65
2023/12/17 05:41:12;;;;;;;5.40;2.08;;;;;;;;;;4999460;28;20029;-65
2023/12/17 05:43:38;;;;;;;4.55;1.88;;;;;;;;;;5045796;28;21763;-65
2023/12/17 05:46:04;;;;;;;5.15;2.10;;;;;;;;;;5001440;28;20045;-65
2023/12/17 05:48:34;;;;;;;8.80;2.20;;;;;;;;;;4991696;28;20046;-65
2023/12/17 05:51:00;;;;;;;7.25;2.05;;;;;;;;;;5031828;28;20023;-65
2023/12/17 05:53:27;;;;;;;6.18;2.42;;;;;;;;;;4988581;28;20474;-65
2023/12/17 05:55:53;;;;;;;1.98;1.75;;;;;;;;;;4999578;28;20030;-64
2023/12/17 05:58:19;;;;;;;7.43;2.28;;;;;;;;;;4997226;28;20030;-65
2023/12/17 06:00:45;;;;;;;5.95;2.35;;;;;;;;;;5022603;28;20129;-65
2023/12/17 06:03:12;;;;;;;4.35;2.30;;;;;;;;;;5020456;28;20084;-65
2023/12/17 06:05:38;;;;;;;6.43;2.40;;;;;;;;;;4996365;28;20062;-65
2023/12/17 06:08:04;;;;;;;5.38;1.80;;;;;;;;;;5001885;28;20506;-66
2023/12/17 06:10:30;;;;;;;4.95;2.00;;;;;;;;;;5000061;28;20038;-64
2023/12/17 06:12:57;;;;;;;5.93;1.98;;;;;;;;;;5011739;28;20086;-65
2023/12/17 06:15:23;;;;;;;4.95;1.98;;;;;;;;;;5029606;28;20034;-64
2023/12/17 06:17:49;;;;;;;2.65;1.83;;;;;;;;;;4988138;28;20100;-65
2023/12/17 06:20:15;;;;;;;7.00;2.67;;;;;;;;;;5008501;28;20045;-64
2023/12/17 06:22:41;;;;;;;7.95;2.35;;;;;;;;;;5000855;28;20537;-66
2023/12/17 06:25:08;;;;;;;7.00;3.28;;;;;;;;;;5016429;28;20026;-65
2023/12/17 06:27:36;;;;;;;4.03;1.75;;;;;;;;;;5019238;28;20024;-65
2023/12/17 06:30:02;;;;;;;6.25;2.28;;;;;;;;;;5023033;28;20178;-64
2023/12/17 06:32:29;;;;;;;6.90;2.80;;;;;;;;;;4999326;28;20383;-65
2023/12/17 06:34:57;;;;;;;2.13;1.92;;;;;;;;;;5000439;28;20394;-65
2023/12/17 06:37:26;;;;;;;4.30;2.08;;;;;;;;;;5023892;28;20032;-64
2023/12/17 06:39:52;;;;;;;4.60;2.10;;;;;;;;;;4993238;28;20186;-65
2023/12/17 06:42:18;;;;;;;5.97;2.15;;;;;;;;;;4996378;28;20081;-65
2023/12/17 06:44:45;;;;;;;5.60;2.50;;;;;;;;;;5005384;28;20036;-64
2023/12/17 06:47:12;;;;;;;7.82;2.22;;;;;;;;;;5016699;28;20041;-64
2023/12/17 06:49:39;;;;;;;4.80;1.80;;;;;;;;;;5008016;28;20120;-65
2023/12/17 06:52:05;;;;;;;7.10;2.55;;;;;;;;;;4993773;28;20225;-65
2023/12/17 06:54:31;;;;;;;3.53;1.90;;;;;;;;;;4994570;28;20387;-65
2023/12/17 06:56:58;;;;;;;3.45;1.98;;;;;;;;;;4994695;28;20583;-65
2023/12/17 06:59:24;;;;;;;4.28;2.05;;;;;;;;;;5021299;28;20019;-65
2023/12/17 07:01:51;;;;;;;5.60;2.13;;;;;;;;;;5014887;28;20438;-65
2023/12/17 07:04:17;;;;;;;4.03;2.05;;;;;;;;;;5001558;28;20068;-65
2023/12/17 07:06:45;;;;;;;6.72;1.90;;;;;;;;;;5005519;28;20533;-65
2023/12/17 07:09:11;;;;;;;3.83;1.67;;;;;;;;;;5003875;28;20459;-65
2023/12/17 07:11:37;;;;;;;11.10;2.28;;;;;;;;;;5007059;28;20030;-65
2023/12/17 07:14:03;;;;;;;3.00;2.15;;;;;;;;;;5044298;28;20023;-65
2023/12/17 07:16:30;;;;;;;9.43;2.35;;;;;;;;;;4994239;28;20077;-65
2023/12/17 07:18:56;;;;;;;2.63;1.63;;;;;;;;;;5009167;28;20496;-65
2023/12/17 07:21:22;;;;;;;2.90;1.80;;;;;;;;;;4999666;28;20490;-63
2023/12/17 07:23:49;;;;;;;6.18;2.17;;;;;;;;;;5016710;28;20618;-64
2023/12/17 07:26:15;;;;;;;4.68;1.90;;;;;;;;;;4996805;28;20030;-65
2023/12/17 07:28:41;;;;;;;4.03;1.92;;;;;;;;;;5003875;28;20045;-65
2023/12/17 07:31:08;;;;;;;3.03;1.80;;;;;;;;;;5000775;28;20075;-64
2023/12/17 07:33:34;;;;;;;4.97;2.35;;;;;;;;;;5009938;28;20049;-64
2023/12/17 07:36:00;;;;;;;3.10;1.73;;;;;;;;;;5020144;28;20105;-65
2023/12/17 07:38:26;;;;;;;5.20;1.92;;;;;;;;;;5008678;28;20018;-64
2023/12/17 07:40:52;;;;;;;1.92;1.55;;;;;;;;;;5005541;28;20099;-65
2023/12/17 07:43:18;;;;;;;5.15;2.03;;;;;;;;;;5016362;28;20042;-64
2023/12/17 07:45:45;;;;;;;5.97;2.22;;;;;;;;;;4996858;28;20048;-65
2023/12/17 07:48:11;;;;;;;1.67;1.50;;;;;;;;;;4998793;28;20398;-63
2023/12/17 07:50:37;;;;;;;2.78;1.77;;;;;;;;;;4992351;28;20030;-65
2023/12/17 07:53:04;;;;;;;6.45;2.28;;;;;;;;;;4998190;28;20050;-65
2023/12/17 07:55:30;;;;;;;3.03;1.50;;;;;;;;;;4992590;28;20045;-65
2023/12/17 07:57:56;;;;;;;3.17;1.58;;;;;;;;;;5011510;28;20045;-64
2023/12/17 08:00:22;;;;;;;2.90;2.15;;;;;;;;;;4999973;28;20433;-65
2023/12/17 08:02:48;;;;;;;1.60;1.50;;;;;;;;;;4995046;28;20042;-64
2023/12/17 08:05:16;;;;;;;1.95;1.85;;;;;;;;;;5001904;28;20039;-65
2023/12/17 08:07:42;;;;;;;2.25;1.67;;;;;;;;;;5009639;28;20462;-65
2023/12/17 08:10:08;;;;;;;4.00;1.90;;;;;;;;;;5005208;28;20329;-66
2023/12/17 08:12:34;;;;;;;3.75;1.80;;;;;;;;;;5014678;28;20494;-65
2023/12/17 08:15:04;;;;;;;3.15;1.63;;;;;;;;;;5003473;28;20186;-66
2023/12/17 08:17:30;;;;;;;3.95;1.55;;;;;;;;;;4995288;28;20054;-64
2023/12/17 08:19:57;;;;;;;4.07;2.10;;;;;;;;;;4998584;28;20040;-66
2023/12/17 08:22:23;;;;;;;1.90;1.67;;;;;;;;;;4998666;28;20041;-65
2023/12/17 08:24:49;;;;;;;9.38;2.13;;;;;;;;;;4997403;28;20041;-65
2023/12/17 08:27:16;;;;;;;2.53;2.17;;;;;;;;;;5000159;28;20429;-65
2023/12/17 08:29:47;;;;;;;3.25;1.70;;;;;;;;;;4997701;28;20034;-64
2023/12/17 08:32:13;;;;;;;2.42;1.60;;;;;;;;;;5003718;28;20028;-66
2023/12/17 08:34:40;;;;;;;4.75;1.95;;;;;;;;;;5001912;28;20031;-65
2023/12/17 08:37:06;;;;;;;3.30;2.13;;;;;;;;;;4997241;28;20036;-64
2023/12/17 08:39:32;;;;;;;4.50;1.75;;;;;;;;;;5009446;28;20030;-64
2023/12/17 08:41:58;;;;;;;3.47;2.35;;;;;;;;;;4994777;28;20022;-66
2023/12/17 08:44:25;;;;;;;5.50;2.28;;;;;;;;;;5005709;28;20669;-66
2023/12/17 08:46:52;;;;;;;4.65;2.05;;;;;;;;;;5003226;28;20485;-67
2023/12/17 08:49:18;;;;;;;2.10;1.63;;;;;;;;;;5009022;28;20084;-68
2023/12/17 08:51:45;;;;;;;5.28;2.05;;;;;;;;;;5004909;28;20615;-65
2023/12/17 08:54:12;;;;;;;2.80;1.92;;;;;;;;;;5002182;28;20578;-66
2023/12/17 08:56:39;;;;;;;4.28;3.13;;;;;;;;;;4998010;28;20038;-65
2023/12/17 08:59:05;;;;;;;2.60;2.20;;;;;;;;;;5013674;28;20045;-67
2023/12/17 09:01:32;;;;;;;3.58;1.75;;;;;;;;;;5006884;28;20489;-66
2023/12/17 09:03:58;;;;;;;2.03;1.73;;;;;;;;;;5005441;28;20033;-67
2023/12/17 09:06:24;;;;;;;2.63;1.70;;;;;;;;;;5010692;28;20041;-67
2023/12/17 09:08:50;;;;;;;1.98;1.70;;;;;;;;;;5008212;28;20108;-67
2023/12/17 09:11:16;;;;;;;3.72;1.77;;;;;;;;;;5005902;28;20030;-69
2023/12/17 09:13:42;;;;;;;2.05;1.83;;;;;;;;;;5012541;28;20035;-68
2023/12/17 09:16:09;;;;;;;1.75;1.45;;;;;;;;;;5000597;28;20559;-69
2023/12/17 09:18:35;;;;;;;3.92;1.88;;;;;;;;;;4998172;28;20057;-69
2023/12/17 09:21:01;;;;;;;1.48;1.38;;;;;;;;;;5016015;28;20029;-69
2023/12/17 09:23:27;;;;;;;3.10;1.88;;;;;;;;;;5013292;28;20448;-69
2023/12/17 09:25:54;;;;;;;3.97;1.92;;;;;;;;;;5004410;28;20059;-69
2023/12/17 09:28:20;;;;;;;2.85;2.03;;;;;;;;;;4999796;28;20023;-68
2023/12/17 09:30:46;;;;;;;4.95;1.90;;;;;;;;;;5005420;28;20352;-68
2023/12/17 09:33:12;;;;;;;3.50;2.63;;;;;;;;;;4997093;28;20041;-69
2023/12/17 09:35:39;;;;;;;2.35;2.10;;;;;;;;;;5013405;28;20022;-69
2023/12/17 09:38:05;;;;;;;3.97;1.80;;;;;;;;;;5000225;28;20517;-70
2023/12/17 09:40:32;;;;;;;3.38;1.90;;;;;;;;;;5000635;28;20048;-69
2023/12/17 09:42:59;;;;;;;5.30;2.58;;;;;;;;;;5007496;28;20111;-70
2023/12/17 09:45:26;;;;;;;8.55;2.75;;;;;;;;;;4999466;28;20037;-69
2023/12/17 09:47:52;;;;;;;5.35;2.20;;;;;;;;;;5002274;28;20042;-68
2023/12/17 09:50:18;;;;;;;3.53;1.77;;;;;;;;;;4998310;28;20038;-68
2023/12/17 09:52:45;;;;;;;3.35;1.77;;;;;;;;;;4998576;28;20057;-68
2023/12/17 09:55:11;;;;;;;7.53;2.30;;;;;;;;;;5007667;28;20519;-68
2023/12/17 09:57:37;;;;;;;4.80;2.40;;;;;;;;;;5001357;28;20050;-70
2023/12/17 10:00:04;;;;;;;8.23;2.58;;;;;;;;;;5004431;28;20049;-68
2023/12/17 10:02:30;;;;;;;7.00;2.67;;;;;;;;;;5001323;28;20106;-68
2023/12/17 10:04:57;;;;;;;5.82;2.15;;;;;;;;;;4998473;28;20057;-69
2023/12/17 10:07:23;;;;;;;2.83;2.15;;;;;;;;;;5005669;28;20055;-68
2023/12/17 10:09:49;;;;;;;3.80;2.50;;;;;;;;;;5001541;28;20042;-69
2023/12/17 10:12:16;;;;;;;6.90;2.63;;;;;;;;;;4994343;28;20053;-68
2023/12/17 10:14:43;;;;;;;6.20;2.22;;;;;;;;;;5012384;28;20049;-69
2023/12/17 10:17:14;;;;;;;4.45;1.95;;;;;;;;;;4994575;28;20506;-69
2023/12/17 10:19:40;;;;;;;6.13;2.30;;;;;;;;;;4998108;28;20520;-69
2023/12/17 10:22:07;;;;;;;6.47;2.20;;;;;;;;;;5009670;28;20100;-69
2023/12/17 10:24:37;;;;;;;7.80;2.80;;;;;;;;;;5006401;28;20022;-68
2023/12/17 10:27:15;;;;;;;5.65;2.42;;;;;;;;;;4999626;28;20545;-69
2023/12/17 10:29:41;;;;;;;6.45;2.65;;;;;;;;;;5001093;28;20125;-69
2023/12/17 10:32:09;;;;;;;6.93;2.42;;;;;;;;;;5010155;28;20076;-68
2023/12/17 10:34:36;;;;;;;6.75;2.45;;;;;;;;;;5004490;28;20026;-68
2023/12/17 10:37:03;;;;;;;7.10;2.20;;;;;;;;;;5011790;28;20026;-69
2023/12/17 10:39:32;;;;;;;4.60;2.30;;;;;;;;;;5005266;28;20102;-69
2023/12/17 10:41:58;;;;;;;4.07;2.53;;;;;;;;;;4993431;28;20035;-69
2023/12/17 10:44:26;;;;;;;6.55;2.65;;;;;;;;;;5000247;28;20505;-68
2023/12/17 10:46:54;;;;;;;7.90;3.45;;;;;;;;;;5019216;28;20131;-69
2023/12/17 10:49:20;;;;;;;7.05;2.78;;;;;;;;;;5013425;28;20821;-68
2023/12/17 10:51:47;;;;;;;8.02;2.13;;;;;;;;;;5000098;28;20459;-68
2023/12/17 10:54:14;;;;;;;6.28;2.15;;;;;;;;;;4997997;28;20041;-69
2023/12/17 10:56:42;;;;;;;6.18;2.72;;;;;;;;;;5005245;28;20021;-69
2023/12/17 10:59:11;;;;;;;8.48;3.38;;;;;;;;;;5002395;28;20203;-68
2023/12/17 11:01:38;;;;;;;4.13;3.25;;;;;;;;;;5013448;28;20033;-68
2023/12/17 11:04:06;;;;;;;4.38;2.70;;;;;;;;;;4999345;28;20567;-69
2023/12/17 11:06:32;;;;;;;3.92;2.13;;;;;;;;;;5004627;28;20027;-69
2023/12/17 11:08:58;;;;;;;6.38;2.55;;;;;;;;;;5008350;28;20038;-70
2023/12/17 11:11:24;;;;;;;9.07;2.25;;;;;;;;;;5007891;28;20561;-68
2023/12/17 11:13:51;;;;;;;5.63;2.33;;;;;;;;;;5000872;28;20022;-69
2023/12/17 11:16:28;;;;;;;4.95;2.50;;;;;;;;;;5002578;28;20120;-68
2023/12/17 11:18:55;;;;;;;4.15;2.45;;;;;;;;;;5004480;28;20302;-69
2023/12/17 11:21:22;;;;;;;4.63;1.90;;;;;;;;;;5002218;28;20102;-68
2023/12/17 11:23:52;;;;;;;2.60;2.40;;;;;;;;;;4993893;28;20169;-68
2023/12/17 11:26:18;;;;;;;6.07;2.35;;;;;;;;;;4996544;28;20025;-68
2023/12/17 11:28:45;;;;;;;5.45;2.60;;;;;;;;;;5005162;28;20428;-68
2023/12/17 11:31:13;;;;;;;5.32;2.30;;;;;;;;;;4998539;28;20477;-69
2023/12/17 11:33:40;;;;;;;6.10;2.75;;;;;;;;;;4998114;28;20053;-70
2023/12/17 11:36:11;;;;;;;7.10;2.30;;;;;;;;;;5003289;28;20105;-70
2023/12/17 11:38:37;;;;;;;8.10;2.20;;;;;;;;;;5008308;28;20450;-69
2023/12/17 11:41:06;;;;;;;5.30;2.50;;;;;;;;;;5009222;28;20116;-70
2023/12/17 11:43:32;;;;;;;5.30;2.78;;;;;;;;;;4997356;28;20087;-68
2023/12/17 11:45:58;;;;;;;6.10;2.63;;;;;;;;;;5006061;28;21024;-68
2023/12/17 11:48:26;;;;;;;8.10;2.20;;;;;;;;;;5007124;28;20034;-69
2023/12/17 11:50:56;;;;;;;7.13;2.47;;;;;;;;;;4998004;28;20052;-70
2023/12/17 11:53:23;;;;;;;4.47;2.08;;;;;;;;;;5002202;28;20481;-68
2023/12/17 11:55:50;;;;;;;8.43;2.47;;;;;;;;;;5005143;28;20030;-69
2023/12/17 11:58:19;;;;;;;6.03;2.22;;;;;;;;;;5000288;28;20435;-69
2023/12/17 12:01:01;;;;;;;5.95;2.58;;;;;;;;;;4997111;28;20034;-71
2023/12/17 12:03:28;;;;;;;2.63;2.10;;;;;;;;;;5010483;28;20064;-69
2023/12/17 12:05:58;;;;;;;7.75;2.58;;;;;;;;;;4995839;28;20033;-69
2023/12/17 12:08:25;;;;;;;8.00;2.30;;;;;;;;;;5011017;28;20136;-70
2023/12/17 12:10:51;;;;;;;6.47;2.50;;;;;;;;;;4997275;28;20058;-69
2023/12/17 12:13:18;;;;;;;5.97;2.45;;;;;;;;;;5002896;28;20082;-69
2023/12/17 12:15:44;;;;;;;3.80;2.50;;;;;;;;;;4990670;28;20026;-69
2023/12/17 12:18:22;;;;;;;6.95;2.42;;;;;;;;;;5008766;28;20475;-68
2023/12/17 12:20:49;;;;;;;4.22;2.88;;;;;;;;;;5015503;28;20026;-69
2023/12/17 12:23:15;;;;;;;3.22;2.30;;;;;;;;;;4997520;28;20025;-68
2023/12/17 12:25:42;;;;;;;4.10;2.85;;;;;;;;;;4989876;28;20434;-69
2023/12/17 12:28:21;;;;;;;7.10;3.40;;;;;;;;;;4988261;28;20517;-69
2023/12/17 12:30:47;;;;;;;5.57;2.42;;;;;;;;;;4991356;28;20030;-68
2023/12/17 12:33:15;;;;;;;5.82;2.60;;;;;;;;;;4989880;28;20474;-68
2023/12/17 12:35:44;;;;;;;4.35;2.75;;;;;;;;;;4998677;28;20053;-68
2023/12/17 12:38:18;;;;;;;7.70;2.25;;;;;;;;;;4999122;28;20084;-68
2023/12/17 12:40:44;;;;;;;4.78;3.05;;;;;;;;;;5002777;28;20030;-68
2023/12/17 12:43:11;;;;;;;3.47;2.50;;;;;;;;;;5001951;28;20083;-68
2023/12/17 12:45:37;;;;;;;7.75;3.28;;;;;;;;;;5009434;28;20037;-68
2023/12/17 12:48:04;;;;;;;6.05;3.08;;;;;;;;;;5005769;28;20038;-68
2023/12/17 12:50:30;;;;;;;5.10;2.38;;;;;;;;;;5006059;28;20022;-69
2023/12/17 12:52:56;;;;;;;5.40;2.28;;;;;;;;;;5012320;28;20129;-68
2023/12/17 12:55:23;;;;;;;7.07;2.80;;;;;;;;;;5004504;28;20183;-69
2023/12/17 12:57:49;;;;;;;5.50;2.63;;;;;;;;;;5008516;28;20026;-68
2023/12/17 13:00:16;;;;;;;5.50;2.45;;;;;;;;;;5040945;28;20027;-69
2023/12/17 13:02:42;;;;;;;5.70;2.63;;;;;;;;;;5002025;28;20108;-69
2023/12/17 13:05:08;;;;;;;5.03;2.40;;;;;;;;;;5004587;28;20026;-68
2023/12/17 13:07:34;;;;;;;4.28;2.30;;;;;;;;;;4995087;28;20030;-68
2023/12/17 13:10:01;;;;;;;4.82;2.30;;;;;;;;;;5004080;28;20033;-69
2023/12/17 13:12:27;;;;;;;2.75;2.10;;;;;;;;;;5003414;28;20041;-68
2023/12/17 13:14:53;;;;;;;4.05;2.38;;;;;;;;;;4997586;28;20040;-68
2023/12/17 13:17:20;;;;;;;6.53;2.25;;;;;;;;;;5001869;28;20497;-70
2023/12/17 13:19:46;;;;;;;11.40;2.22;;;;;;;;;;5025083;28;20040;-68
2023/12/17 13:22:12;;;;;;;3.95;2.10;;;;;;;;;;5002210;28;20089;-68
2023/12/17 13:24:39;;;;;;;8.68;2.63;;;;;;;;;;5008589;28;20055;-68
2023/12/17 13:27:12;;;;;;;4.45;2.15;;;;;;;;;;4996915;28;20053;-69
2023/12/17 13:29:38;;;;;;;7.72;2.85;;;;;;;;;;5003705;28;20068;-69
2023/12/17 13:32:04;;;;;;;5.18;2.53;;;;;;;;;;5001738;28;20562;-68
2023/12/17 13:34:30;;;;;;;4.78;2.40;;;;;;;;;;5002612;28;20382;-67
2023/12/17 13:36:56;;;;;;;7.28;2.78;;;;;;;;;;5002099;28;20101;-68
2023/12/17 13:39:23;;;;;;;5.40;2.80;;;;;;;;;;5002977;28;20942;-71
2023/12/17 13:41:49;;;;;;;4.75;2.10;;;;;;;;;;5007883;28;20030;-69
2023/12/17 13:44:15;;;;;;;9.10;2.40;;;;;;;;;;4992092;28;20030;-69
2023/12/17 13:46:42;;;;;;;7.50;2.40;;;;;;;;;;5001163;28;20057;-69
2023/12/17 13:49:11;;;;;;;4.95;2.15;;;;;;;;;;5001034;28;20517;-68
2023/12/17 13:51:37;;;;;;;5.63;2.35;;;;;;;;;;5003024;28;20393;-68
2023/12/17 13:54:03;;;;;;;6.80;2.65;;;;;;;;;;5000760;28;20485;-68
2023/12/17 13:56:30;;;;;;;5.90;2.40;;;;;;;;;;4994826;28;20125;-70
2023/12/17 13:58:56;;;;;;;8.50;2.72;;;;;;;;;;4993510;28;20482;-69
2023/12/17 14:01:25;;;;;;;6.53;2.67;;;;;;;;;;4997419;28;20513;-68
2023/12/17 14:03:52;;;;;;;6.93;3.45;;;;;;;;;;5001417;28;20041;-69
2023/12/17 14:06:18;;;;;;;5.10;2.15;;;;;;;;;;4997178;28;20493;-69
2023/12/17 14:08:48;;;;;;;6.72;3.05;;;;;;;;;;5012494;28;20030;-69
2023/12/17 14:11:15;;;;;;;5.97;2.60;;;;;;;;;;4984009;28;20061;-69
2023/12/17 14:13:41;;;;;;;6.05;2.63;;;;;;;;;;5018799;28;20058;-69
2023/12/17 14:16:11;;;;;;;6.57;2.65;;;;;;;;;;5017639;28;20459;-69
2023/12/17 14:18:38;;;;;;;7.22;2.55;;;;;;;;;;4997942;28;20091;-69
2023/12/17 14:21:05;;;;;;;2.72;1.80;;;;;;;;;;4994580;28;20579;-69
2023/12/17 14:23:32;;;;;;;13.05;2.63;;;;;;;;;;5007243;28;20033;-68
2023/12/17 14:25:58;;;;;;;7.45;2.65;;;;;;;;;;5002604;28;20402;-69
2023/12/17 14:28:25;;;;;;;4.88;3.42;;;;;;;;;;5001403;28;20454;-69
2023/12/17 14:30:51;;;;;;;4.30;2.85;;;;;;;;;;5007988;28;20022;-69
2023/12/17 14:33:17;;;;;;;5.78;2.80;;;;;;;;;;4997347;28;20030;-69
2023/12/17 14:35:43;;;;;;;6.63;2.50;;;;;;;;;;5003151;28;20401;-69
2023/12/17 14:38:10;;;;;;;5.65;2.75;;;;;;;;;;4990820;28;21036;-69
2023/12/17 14:40:36;;;;;;;8.43;2.40;;;;;;;;;;5006984;28;21184;-68